createdAt,value
2023-03-31T00:01:45.038Z,1.60
2023-03-31T00:04:14.540Z,1.80
2023-03-31T00:06:43.358Z,1.80
2023-03-31T00:09:13.043Z,2.83
2023-03-31T00:11:41.314Z,1.50
2023-03-31T00:14:09.853Z,1.50
2023-03-31T00:16:38.660Z,2.00
2023-03-31T00:19:10.277Z,1.80
2023-03-31T00:21:42.755Z,2.20
2023-03-31T00:24:11.572Z,1.93
2023-03-31T00:26:39.587Z,1.47
2023-03-31T00:29:08.950Z,1.93
2023-03-31T00:31:39.017Z,1.87
2023-03-31T00:34:07.886Z,1.60
2023-03-31T00:36:36.902Z,1.63
2023-03-31T00:39:08.831Z,1.93
2023-03-31T00:41:39.300Z,1.30
2023-03-31T00:44:13.116Z,1.70
2023-03-31T00:46:47.133Z,1.97
2023-03-31T00:49:20.885Z,1.90
2023-03-31T00:51:50.038Z,1.83
2023-03-31T00:54:21.560Z,3.50
2023-03-31T00:56:50.697Z,2.10
2023-03-31T00:59:18.900Z,1.90
2023-03-31T01:01:50.633Z,2.13
2023-03-31T01:04:22.660Z,1.60
2023-03-31T01:06:57.391Z,1.63
2023-03-31T01:09:30.772Z,2.33
2023-03-31T01:11:58.745Z,2.00
2023-03-31T01:14:26.851Z,1.50
2023-03-31T01:16:55.181Z,1.83
2023-03-31T01:19:33.571Z,2.13
2023-03-31T01:22:46.104Z,1.97
2023-03-31T01:25:46.019Z,2.00
2023-03-31T01:28:21.318Z,2.20
2023-03-31T01:31:17.838Z,1.67
2023-03-31T01:34:14.630Z,2.17
2023-03-31T01:37:03.627Z,2.00
2023-03-31T01:40:11.288Z,2.27
2023-03-31T01:42:44.224Z,1.90
2023-03-31T01:45:20.108Z,1.67
2023-03-31T01:47:52.379Z,2.77
2023-03-31T01:50:27.543Z,1.83
2023-03-31T01:52:59.825Z,2.00
2023-03-31T01:55:32.252Z,1.90
2023-03-31T01:58:04.809Z,2.10
2023-03-31T02:00:37.201Z,1.90
2023-03-31T02:03:08.014Z,2.00
2023-03-31T02:05:39.131Z,2.20
2023-03-31T02:08:09.792Z,2.10
2023-03-31T02:10:38.160Z,1.60
2023-03-31T02:13:08.190Z,3.03
2023-03-31T02:15:42.898Z,2.43
2023-03-31T02:18:12.554Z,2.70
2023-03-31T02:20:42.829Z,3.90
2023-03-31T02:23:12.135Z,2.33
2023-03-31T02:25:46.323Z,2.47
2023-03-31T02:28:20.414Z,2.07
2023-03-31T02:30:53.877Z,2.03
2023-03-31T02:33:21.848Z,2.40
2023-03-31T02:35:49.870Z,2.10
2023-03-31T02:38:17.761Z,2.10
2023-03-31T02:40:45.745Z,1.67
2023-03-31T02:43:13.708Z,1.53
2023-03-31T02:45:45.587Z,2.10
2023-03-31T02:48:17.456Z,2.20
2023-03-31T02:51:16.636Z,1.67
2023-03-31T02:53:54.179Z,1.83
2023-03-31T02:56:40.027Z,2.33
2023-03-31T02:59:17.772Z,2.07
2023-03-31T03:01:54.932Z,1.80
2023-03-31T03:04:37.442Z,2.57
2023-03-31T03:07:10.487Z,2.40
2023-03-31T03:09:46.996Z,3.23
2023-03-31T03:12:18.616Z,2.30
2023-03-31T03:14:49.399Z,2.67
2023-03-31T03:17:23.952Z,2.10
2023-03-31T03:19:54.027Z,2.03
2023-03-31T03:22:22.335Z,2.13
2023-03-31T03:24:50.836Z,2.10
2023-03-31T03:27:18.883Z,1.90
2023-03-31T03:29:47.726Z,2.10
2023-03-31T03:32:16.282Z,2.70
2023-03-31T03:34:45.506Z,2.00
2023-03-31T03:37:13.509Z,2.57
2023-03-31T03:39:41.375Z,2.20
2023-03-31T03:42:09.259Z,1.53
2023-03-31T03:44:37.114Z,2.00
2023-03-31T03:47:05.138Z,2.23
2023-03-31T03:49:33.048Z,2.10
2023-03-31T03:52:02.303Z,2.67
2023-03-31T03:54:30.205Z,2.20
2023-03-31T03:56:58.097Z,2.40
2023-03-31T03:59:26.077Z,1.90
2023-03-31T04:01:54.028Z,2.40
2023-03-31T04:04:22.135Z,2.33
2023-03-31T04:06:49.957Z,1.73
2023-03-31T04:09:19.302Z,1.90
2023-03-31T04:11:47.214Z,1.60
2023-03-31T04:14:17.795Z,1.87
2023-03-31T04:16:46.922Z,2.57
2023-03-31T04:19:17.570Z,1.50
2023-03-31T04:21:46.072Z,2.10
2023-03-31T04:24:15.986Z,2.03
2023-03-31T04:26:45.191Z,1.80
2023-03-31T04:29:14.705Z,2.13
2023-03-31T04:31:44.050Z,2.10
2023-03-31T04:34:15.403Z,2.40
2023-03-31T04:36:47.296Z,2.10
2023-03-31T04:39:16.607Z,1.67
2023-03-31T04:41:46.032Z,2.00
2023-03-31T04:44:14.017Z,1.80
2023-03-31T04:46:42.104Z,2.10
2023-03-31T04:49:10.098Z,2.00
2023-03-31T04:51:38.004Z,2.00
2023-03-31T04:54:06.121Z,2.10
2023-03-31T04:56:34.530Z,1.90
2023-03-31T04:59:04.583Z,1.80
2023-03-31T05:01:36.301Z,1.43
2023-03-31T05:04:04.671Z,2.40
2023-03-31T05:06:32.551Z,1.70
2023-03-31T05:09:00.422Z,1.70
2023-03-31T05:11:29.029Z,2.13
2023-03-31T05:13:57.250Z,2.30
2023-03-31T05:16:26.726Z,2.00
2023-03-31T05:18:55.397Z,1.47
2023-03-31T05:21:23.390Z,1.83
2023-03-31T05:23:51.224Z,2.00
2023-03-31T05:26:19.428Z,2.77
2023-03-31T05:28:47.236Z,1.60
2023-03-31T05:31:15.137Z,2.17
2023-03-31T05:33:44.449Z,1.97
2023-03-31T05:36:14.362Z,2.30
2023-03-31T05:38:42.687Z,2.33
2023-03-31T05:41:11.954Z,3.00
2023-03-31T05:43:40.342Z,2.17
2023-03-31T05:46:08.689Z,3.30
2023-03-31T05:48:37.442Z,2.47
2023-03-31T05:51:06.913Z,2.50
2023-03-31T05:53:35.210Z,2.37
2023-03-31T05:56:05.617Z,2.97
2023-03-31T05:58:35.225Z,2.60
2023-03-31T06:01:06.695Z,2.97
2023-03-31T06:03:35.344Z,2.60
2023-03-31T06:06:05.925Z,2.43
2023-03-31T06:08:35.749Z,3.00
2023-03-31T06:11:07.010Z,3.30
2023-03-31T06:13:38.420Z,3.50
2023-03-31T06:16:09.954Z,3.37
2023-03-31T06:18:38.762Z,3.27
2023-03-31T06:21:07.620Z,3.10
2023-03-31T06:23:37.208Z,3.87
2023-03-31T06:26:08.423Z,4.37
2023-03-31T06:28:37.384Z,3.83
2023-03-31T06:31:07.337Z,3.37
2023-03-31T06:33:36.565Z,3.43
2023-03-31T06:36:05.920Z,4.00
2023-03-31T06:38:34.672Z,4.27
2023-03-31T06:41:04.276Z,4.80
2023-03-31T06:43:32.540Z,4.80
2023-03-31T06:46:00.425Z,4.60
2023-03-31T06:48:29.002Z,4.40
2023-03-31T06:51:00.134Z,4.80
2023-03-31T06:53:28.286Z,4.50
2023-03-31T06:55:56.226Z,4.80
2023-03-31T06:58:25.769Z,4.90
2023-03-31T07:00:54.334Z,4.30
2023-03-31T07:03:25.302Z,4.07
2023-03-31T07:05:54.342Z,3.63
2023-03-31T07:08:22.996Z,4.30
2023-03-31T07:10:56.018Z,4.30
2023-03-31T07:13:25.810Z,3.60
2023-03-31T07:15:55.936Z,4.87
2023-03-31T07:18:26.194Z,4.53
2023-03-31T07:20:54.337Z,5.00
2023-03-31T07:23:22.263Z,4.70
2023-03-31T07:25:50.145Z,4.87
2023-03-31T07:28:18.077Z,5.10
2023-03-31T07:30:47.321Z,4.43
2023-03-31T07:33:15.225Z,5.60
2023-03-31T07:35:43.372Z,4.30
2023-03-31T07:38:11.906Z,4.17
2023-03-31T07:40:40.829Z,5.47
2023-03-31T07:43:09.110Z,5.50
2023-03-31T07:45:37.124Z,5.00
2023-03-31T07:48:06.841Z,5.30
2023-03-31T07:50:34.819Z,5.70
2023-03-31T07:53:05.586Z,4.80
2023-03-31T07:55:33.496Z,5.57
2023-03-31T07:58:01.452Z,4.70
2023-03-31T08:00:29.352Z,3.90
2023-03-31T08:02:57.259Z,5.07
2023-03-31T08:05:26.754Z,3.57
2023-03-31T08:07:54.668Z,3.30
2023-03-31T08:10:25.048Z,3.10
2023-03-31T08:12:54.078Z,3.00
2023-03-31T08:15:22.002Z,2.27
2023-03-31T08:17:50.124Z,2.20
2023-03-31T08:20:18.002Z,2.20
2023-03-31T08:22:47.287Z,2.20
2023-03-31T08:25:15.136Z,2.30
2023-03-31T08:27:43.069Z,1.90
2023-03-31T08:30:12.708Z,2.37
2023-03-31T08:32:40.659Z,2.40
2023-03-31T08:35:09.748Z,2.30
2023-03-31T08:37:38.033Z,2.20
2023-03-31T08:40:09.633Z,1.80
2023-03-31T08:42:40.548Z,2.00
2023-03-31T08:45:13.046Z,2.07
2023-03-31T08:47:41.647Z,2.10
2023-03-31T08:50:14.901Z,2.17
2023-03-31T08:52:45.902Z,2.40
2023-03-31T08:55:20.798Z,2.13
2023-03-31T08:57:55.791Z,2.43
2023-03-31T09:00:23.715Z,2.90
2023-03-31T09:02:56.875Z,2.93
2023-03-31T09:05:59.284Z,2.80
2023-03-31T09:08:36.543Z,2.47
2023-03-31T09:11:13.166Z,3.10
2023-03-31T09:13:53.247Z,3.53
2023-03-31T09:16:22.773Z,3.50
2023-03-31T09:18:51.881Z,3.50
2023-03-31T09:21:24.477Z,4.10
2023-03-31T09:23:57.166Z,4.20
2023-03-31T09:26:28.433Z,4.10
2023-03-31T09:28:58.600Z,3.00
2023-03-31T09:31:27.077Z,3.30
2023-03-31T09:33:58.874Z,3.03
2023-03-31T09:36:26.766Z,3.70
2023-03-31T09:38:54.692Z,3.70
2023-03-31T09:41:22.582Z,3.20
2023-03-31T09:43:51.916Z,3.20
2023-03-31T09:46:24.327Z,3.20
2023-03-31T09:48:56.231Z,2.93
2023-03-31T09:51:29.835Z,2.73
2023-03-31T09:54:03.175Z,2.70
2023-03-31T09:56:37.270Z,3.70
2023-03-31T09:59:06.605Z,3.60
2023-03-31T10:01:37.293Z,3.23
2023-03-31T10:04:09.371Z,2.80
2023-03-31T10:06:42.115Z,2.57
2023-03-31T10:09:11.526Z,2.63
2023-03-31T10:11:39.517Z,2.00
2023-03-31T10:14:14.851Z,1.90
2023-03-31T10:16:47.847Z,1.87
2023-03-31T10:19:22.068Z,2.10
2023-03-31T10:21:57.226Z,1.60
2023-03-31T10:24:26.505Z,1.80
2023-03-31T10:26:56.043Z,1.27
2023-03-31T10:29:30.692Z,1.43
2023-03-31T10:32:04.368Z,1.20
2023-03-31T10:34:32.415Z,1.20
2023-03-31T10:37:00.464Z,1.10
2023-03-31T10:39:32.251Z,1.30
2023-03-31T10:42:00.897Z,1.00
2023-03-31T10:44:36.975Z,1.30
2023-03-31T10:47:07.487Z,1.23
2023-03-31T10:49:39.614Z,1.50
2023-03-31T10:52:18.673Z,1.50
2023-03-31T10:54:51.292Z,1.50
2023-03-31T10:57:19.953Z,1.73
2023-03-31T11:00:15.125Z,1.67
2023-03-31T11:03:15.048Z,1.50
2023-03-31T11:05:47.390Z,2.03
2023-03-31T11:08:25.653Z,2.40
2023-03-31T11:11:03.353Z,2.27
2023-03-31T11:13:36.687Z,1.67
2023-03-31T11:16:16.277Z,2.47
2023-03-31T11:19:04.303Z,2.00
2023-03-31T11:21:41.605Z,2.03
2023-03-31T11:24:18.611Z,1.73
2023-03-31T11:26:54.779Z,2.10
2023-03-31T11:29:31.870Z,1.30
2023-03-31T11:32:18.038Z,2.10
2023-03-31T11:34:56.125Z,2.43
2023-03-31T11:37:35.536Z,2.00
2023-03-31T11:40:16.140Z,2.50
2023-03-31T11:42:49.511Z,2.07
2023-03-31T11:45:20.562Z,2.27
2023-03-31T11:47:52.452Z,2.40
2023-03-31T11:50:22.473Z,2.53
2023-03-31T11:52:56.196Z,3.10
2023-03-31T11:55:27.481Z,2.37
2023-03-31T11:58:01.140Z,1.63
2023-03-31T12:00:30.453Z,2.30
2023-03-31T12:03:05.172Z,2.70
2023-03-31T12:05:34.904Z,2.27
2023-03-31T12:08:05.322Z,2.23
2023-03-31T12:10:35.721Z,2.30
2023-03-31T12:13:16.146Z,1.97
2023-03-31T12:15:46.338Z,2.13
2023-03-31T12:18:19.647Z,1.60
2023-03-31T12:20:50.440Z,1.97
2023-03-31T12:23:21.263Z,1.30
2023-03-31T12:25:53.350Z,1.53
2023-03-31T12:28:22.125Z,1.43
2023-03-31T12:30:52.540Z,1.77
2023-03-31T12:33:27.097Z,2.33
2023-03-31T12:36:05.353Z,2.30
2023-03-31T12:38:43.415Z,2.00
2023-03-31T12:41:17.727Z,1.73
2023-03-31T12:44:15.864Z,1.77
2023-03-31T12:46:53.899Z,1.90
2023-03-31T12:49:31.111Z,1.90
2023-03-31T12:52:04.693Z,1.60
2023-03-31T12:54:55.758Z,2.00
2023-03-31T12:57:25.364Z,2.67
2023-03-31T13:00:19.359Z,1.70
2023-03-31T13:02:47.415Z,2.00
2023-03-31T13:05:49.252Z,1.60
2023-03-31T13:08:51.630Z,1.47
2023-03-31T13:11:20.257Z,1.67
2023-03-31T13:16:47.506Z,1.60
2023-03-31T13:19:28.738Z,1.70
2023-03-31T13:21:59.400Z,1.80
2023-03-31T13:24:29.764Z,1.70
2023-03-31T13:26:59.474Z,2.13
2023-03-31T13:29:41.036Z,1.40
2023-03-31T13:32:22.884Z,1.10
2023-03-31T13:34:55.825Z,0.80
2023-03-31T13:37:35.829Z,0.90
2023-03-31T13:40:25.737Z,0.90
2023-03-31T13:43:24.582Z,0.70
2023-03-31T13:46:10.506Z,0.93
2023-03-31T13:48:45.652Z,0.60
2023-03-31T13:51:27.144Z,0.90
2023-03-31T13:54:10.191Z,0.83
2023-03-31T13:57:16.628Z,0.80
2023-03-31T14:00:02.641Z,1.00
2023-03-31T14:02:54.870Z,0.90
2023-03-31T14:05:30.079Z,0.80
2023-03-31T14:08:00.390Z,0.80
2023-03-31T14:10:31.827Z,0.70
2023-03-31T14:13:07.985Z,1.63
2023-03-31T14:15:36.901Z,1.00
2023-03-31T14:18:06.940Z,0.80
2023-03-31T14:20:42.068Z,0.83
2023-03-31T14:23:17.867Z,1.00
2023-03-31T14:25:51.744Z,0.87
2023-03-31T14:28:35.330Z,0.93
2023-03-31T14:31:15.508Z,0.90
2023-03-31T14:33:50.482Z,1.00
2023-03-31T14:36:25.921Z,1.20
2023-03-31T14:38:54.069Z,1.30
2023-03-31T14:41:29.529Z,1.07
2023-03-31T14:43:59.184Z,1.27
2023-03-31T14:46:27.222Z,1.20
2023-03-31T14:48:55.104Z,0.90
2023-03-31T14:51:27.951Z,1.30
2023-03-31T14:53:59.343Z,1.33
2023-03-31T14:56:33.869Z,1.43
2023-03-31T14:59:03.144Z,1.43
2023-03-31T15:01:34.498Z,1.43
2023-03-31T15:04:07.163Z,1.40
2023-03-31T15:06:35.059Z,1.17
2023-03-31T15:09:05.134Z,1.53
2023-03-31T15:11:37.517Z,1.30
2023-03-31T15:14:06.095Z,1.97
2023-03-31T15:16:41.616Z,1.60
2023-03-31T15:19:15.063Z,1.13
2023-03-31T15:21:42.974Z,1.00
2023-03-31T15:24:12.990Z,0.83
2023-03-31T15:26:45.114Z,0.80
2023-03-31T15:29:18.393Z,0.93
2023-03-31T15:31:46.678Z,0.70
2023-03-31T15:34:23.350Z,0.60
2023-03-31T15:36:51.997Z,0.97
2023-03-31T15:39:19.909Z,1.00
2023-03-31T15:41:52.375Z,0.67
2023-03-31T15:44:40.000Z,0.60
2023-03-31T15:47:14.231Z,0.90
2023-03-31T15:49:50.218Z,0.90
2023-03-31T15:52:23.211Z,1.00
2023-03-31T15:54:51.222Z,1.30
2023-03-31T15:57:22.261Z,1.00
2023-03-31T16:02:46.533Z,0.70
2023-03-31T16:08:32.957Z,1.17
2023-03-31T16:11:03.954Z,1.20
2023-03-31T16:13:33.523Z,1.37
2023-03-31T16:16:05.084Z,1.53
2023-03-31T16:18:35.763Z,1.80
2023-03-31T16:21:05.446Z,1.60
2023-03-31T16:23:35.053Z,1.90
2023-03-31T16:26:03.244Z,1.40
2023-03-31T16:28:34.213Z,1.40
2023-03-31T16:31:02.361Z,1.57
2023-03-31T16:33:31.480Z,1.50
2023-03-31T16:35:59.609Z,1.80
2023-03-31T16:38:29.137Z,1.73
2023-03-31T16:40:58.085Z,1.43
2023-03-31T16:43:27.207Z,1.40
2023-03-31T16:45:57.704Z,1.40
2023-03-31T16:48:27.313Z,1.80
2023-03-31T16:50:57.427Z,1.70
2023-03-31T16:53:27.830Z,1.53
2023-03-31T16:55:56.422Z,1.50
2023-03-31T16:58:24.607Z,1.40
2023-03-31T17:00:52.899Z,1.90
2023-03-31T17:03:22.899Z,1.60
2023-03-31T17:05:53.077Z,1.53
2023-03-31T17:08:22.573Z,1.47
2023-03-31T17:10:53.057Z,1.83
2023-03-31T17:13:23.913Z,1.70
2023-03-31T17:15:58.314Z,1.97
2023-03-31T17:18:40.902Z,1.60
2023-03-31T17:21:10.171Z,1.50
2023-03-31T17:23:39.103Z,1.37
2023-03-31T17:26:09.613Z,1.10
2023-03-31T17:28:37.623Z,1.53
2023-03-31T17:31:12.496Z,1.33
2023-03-31T17:33:41.930Z,1.47
2023-03-31T17:36:10.006Z,1.30
2023-03-31T17:38:38.978Z,1.40
2023-03-31T17:41:08.359Z,1.77
2023-03-31T17:43:36.273Z,1.93
2023-03-31T17:46:05.252Z,1.70
2023-03-31T17:48:34.117Z,2.17
2023-03-31T17:51:07.701Z,1.70
2023-03-31T17:53:35.790Z,1.57
2023-03-31T17:56:05.010Z,1.60
2023-03-31T17:58:33.666Z,1.63
2023-03-31T18:01:01.636Z,1.37
2023-03-31T18:03:30.015Z,1.50
2023-03-31T18:05:57.976Z,1.20
2023-03-31T18:08:27.996Z,1.30
2023-03-31T18:10:55.886Z,1.30
2023-03-31T18:13:24.327Z,1.80
2023-03-31T18:15:53.610Z,1.80
2023-03-31T18:18:23.244Z,1.43
2023-03-31T18:20:51.168Z,1.33
2023-03-31T18:23:18.989Z,1.53
2023-03-31T18:25:48.787Z,1.20
2023-03-31T18:28:18.647Z,1.50
2023-03-31T18:30:47.307Z,1.20
2023-03-31T18:33:15.784Z,1.10
2023-03-31T18:35:43.842Z,1.40
2023-03-31T18:38:12.132Z,1.47
2023-03-31T18:40:40.512Z,1.70
2023-03-31T18:43:11.762Z,1.30
2023-03-31T18:45:40.174Z,1.40
2023-03-31T18:48:08.341Z,1.20
2023-03-31T18:50:36.969Z,1.23
2023-03-31T18:53:05.639Z,1.10
2023-03-31T18:55:34.933Z,1.37
2023-03-31T18:58:02.893Z,2.93
2023-03-31T19:00:32.257Z,2.03
2023-03-31T19:03:00.573Z,0.87
2023-03-31T19:05:29.435Z,1.13
2023-03-31T19:07:57.717Z,1.10
2023-03-31T19:10:25.600Z,1.20
2023-03-31T19:12:53.550Z,1.30
2023-03-31T19:15:22.578Z,1.40
2023-03-31T19:17:51.817Z,2.30
2023-03-31T19:20:19.853Z,1.57
2023-03-31T19:22:49.348Z,2.13
2023-03-31T19:25:18.138Z,1.93
2023-03-31T19:27:49.404Z,1.30
2023-03-31T19:30:19.970Z,1.33
2023-03-31T19:32:49.219Z,1.07
2023-03-31T19:35:18.800Z,1.20
2023-03-31T19:37:46.706Z,1.40
2023-03-31T19:40:14.700Z,1.20
2023-03-31T19:42:44.348Z,1.30
2023-03-31T19:45:12.506Z,1.37
2023-03-31T19:47:41.797Z,1.17
2023-03-31T19:50:11.273Z,1.10
2023-03-31T19:52:40.576Z,1.10
2023-03-31T19:55:08.744Z,1.90
2023-03-31T19:57:36.605Z,1.17
2023-03-31T20:00:05.434Z,1.37
2023-03-31T20:02:33.985Z,1.00
2023-03-31T20:05:02.087Z,1.20
2023-03-31T20:07:30.191Z,1.13
2023-03-31T20:09:59.359Z,1.80
2023-03-31T20:12:27.220Z,1.40
2023-03-31T20:14:55.382Z,1.40
2023-03-31T20:17:23.248Z,1.30
2023-03-31T20:19:51.150Z,1.13
2023-03-31T20:22:19.419Z,1.07
2023-03-31T20:24:47.328Z,0.90
2023-03-31T20:27:16.581Z,1.40
2023-03-31T20:29:44.436Z,1.00
2023-03-31T20:32:12.300Z,1.10
2023-03-31T20:34:41.104Z,1.30
2023-03-31T20:37:08.943Z,1.47
2023-03-31T20:39:37.555Z,1.40
2023-03-31T20:42:06.324Z,1.23
2023-03-31T20:44:35.676Z,1.10
2023-03-31T20:47:03.931Z,1.60
2023-03-31T20:49:31.867Z,1.10
2023-03-31T20:51:59.710Z,1.10
2023-03-31T20:54:27.725Z,1.27
2023-03-31T20:56:55.630Z,1.20
2023-03-31T20:59:24.083Z,1.13
2023-03-31T21:01:53.275Z,1.27
2023-03-31T21:04:24.304Z,1.10
2023-03-31T21:06:53.763Z,1.30
2023-03-31T21:09:21.745Z,1.30
2023-03-31T21:11:49.562Z,1.30
2023-03-31T21:14:18.116Z,1.70
2023-03-31T21:16:46.528Z,1.60
2023-03-31T21:19:15.812Z,1.80
2023-03-31T21:21:43.656Z,1.20
2023-03-31T21:24:12.453Z,1.43
2023-03-31T21:26:40.816Z,1.43
2023-03-31T21:29:08.775Z,1.30
2023-03-31T21:31:36.848Z,1.20
2023-03-31T21:34:04.812Z,1.20
2023-03-31T21:36:34.128Z,1.27
2023-03-31T21:39:02.087Z,1.30
2023-03-31T21:41:31.397Z,1.47
2023-03-31T21:44:02.250Z,1.20
2023-03-31T21:46:32.847Z,1.27
2023-03-31T21:49:01.185Z,0.90
2023-03-31T21:51:29.294Z,0.90
2023-03-31T21:53:58.597Z,1.50
2023-03-31T21:56:31.964Z,1.23
2023-03-31T21:59:01.155Z,1.40
2023-03-31T22:01:29.525Z,1.00
2023-03-31T22:03:57.441Z,1.63
2023-03-31T22:06:25.410Z,1.27
2023-03-31T22:08:53.233Z,1.27
2023-03-31T22:11:22.915Z,1.10
2023-03-31T22:13:50.954Z,1.50
2023-03-31T22:16:20.331Z,1.23
2023-03-31T22:18:50.175Z,1.30
2023-03-31T22:21:20.768Z,1.10
2023-03-31T22:23:48.946Z,1.53
2023-03-31T22:26:16.885Z,1.50
2023-03-31T22:28:46.270Z,1.67
2023-03-31T22:31:15.338Z,0.90
2023-03-31T22:33:43.293Z,1.40
2023-03-31T22:36:11.401Z,1.10
2023-03-31T22:38:39.436Z,1.03
2023-03-31T22:41:07.879Z,1.10
2023-03-31T22:43:35.786Z,1.30
2023-03-31T22:46:06.210Z,1.30
2023-03-31T22:48:34.236Z,1.30
2023-03-31T22:51:03.815Z,1.53
2023-03-31T22:53:32.101Z,1.10
2023-03-31T22:56:05.423Z,1.60
2023-03-31T22:58:33.688Z,1.00
2023-03-31T23:01:02.679Z,1.40
2023-03-31T23:03:32.605Z,1.30
2023-03-31T23:06:03.521Z,1.70
2023-03-31T23:08:31.777Z,1.67
2023-03-31T23:11:01.325Z,1.17
2023-03-31T23:13:29.395Z,1.40
2023-03-31T23:15:57.213Z,1.63
2023-03-31T23:18:25.696Z,1.57
2023-03-31T23:20:54.907Z,1.10
2023-03-31T23:23:22.928Z,1.70
2023-03-31T23:25:50.943Z,1.23
2023-03-31T23:28:18.828Z,1.30
2023-03-31T23:30:53.947Z,1.47
2023-03-31T23:33:22.015Z,1.17
2023-03-31T23:35:50.131Z,1.07
2023-03-31T23:38:20.893Z,1.53
2023-03-31T23:40:51.608Z,1.60
2023-03-31T23:43:19.566Z,1.00
2023-03-31T23:45:47.493Z,2.00
2023-03-31T23:48:15.596Z,1.37
2023-03-31T23:50:43.482Z,1.20
2023-03-31T23:53:12.305Z,1.30
2023-03-31T23:55:41.652Z,1.33
2023-03-31T23:58:09.605Z,1.50
